Time;durP1;ratioP1;P1;durP2;ratioP2;P2;SDS_P1;SDS_P2;PMS_P1;PMS_P2;Temp;Humidity;BMP_temperature;BMP_pressure;BME280_temperature;BME280_humidity;BME280_pressure;Samples;Min_cycle;Max_cycle;Signal;HPM_P1;HPM_P2
2024/01/13 00:00:59;;;;;;;83.25;29.17;;;;;;;;;;5127675;27;20083;-77
2024/01/13 00:03:25;;;;;;;76.82;27.30;;;;;;;;;;5130625;27;20035;-77
2024/01/13 00:05:51;;;;;;;72.47;26.42;;;;;;;;;;5136768;27;20027;-76
2024/01/13 00:08:17;;;;;;;93.00;33.03;;;;;;;;;;5136969;27;20036;-78
2024/01/13 00:10:43;;;;;;;86.45;29.98;;;;;;;;;;5124769;27;20097;-78
2024/01/13 00:13:09;;;;;;;93.95;32.65;;;;;;;;;;5133677;27;20023;-78
2024/01/13 00:15:36;;;;;;;91.93;31.67;;;;;;;;;;5126541;27;20051;-77
2024/01/13 00:18:02;;;;;;;82.50;30.70;;;;;;;;;;5126285;27;20478;-76
2024/01/13 00:20:29;;;;;;;76.13;28.67;;;;;;;;;;5124056;27;20032;-77
2024/01/13 00:22:55;;;;;;;75.72;28.20;;;;;;;;;;5128430;27;20083;-77
2024/01/13 00:25:21;;;;;;;73.43;26.17;;;;;;;;;;5140923;27;20027;-78
2024/01/13 00:27:47;;;;;;;81.80;28.85;;;;;;;;;;5131778;27;20439;-78
2024/01/13 00:30:16;;;;;;;82.30;28.83;;;;;;;;;;5140005;27;20018;-77
2024/01/13 00:32:43;;;;;;;84.00;30.27;;;;;;;;;;5141940;27;20461;-78
2024/01/13 00:35:09;;;;;;;94.18;33.28;;;;;;;;;;5136791;27;20028;-78
2024/01/13 00:37:35;;;;;;;83.13;31.05;;;;;;;;;;5137100;27;20050;-78
2024/01/13 00:40:01;;;;;;;77.55;27.95;;;;;;;;;;5134382;27;20032;-78
2024/01/13 00:42:27;;;;;;;76.75;28.60;;;;;;;;;;5146534;27;20036;-77
2024/01/13 00:44:56;;;;;;;73.20;26.60;;;;;;;;;;5143612;27;20011;-78
2024/01/13 00:47:22;;;;;;;92.43;30.95;;;;;;;;;;5142053;27;20015;-78
2024/01/13 00:49:48;;;;;;;84.63;30.23;;;;;;;;;;5141350;27;20027;-76
2024/01/13 00:52:15;;;;;;;93.20;32.35;;;;;;;;;;5130259;27;20110;-77
2024/01/13 00:54:43;;;;;;;77.25;30.25;;;;;;;;;;5134117;27;20030;-77
2024/01/13 00:57:09;;;;;;;66.82;26.77;;;;;;;;;;5136886;27;20053;-77
2024/01/13 00:59:35;;;;;;;64.60;26.52;;;;;;;;;;5143418;27;20026;-77
2024/01/13 01:02:04;;;;;;;59.50;24.75;;;;;;;;;;5142371;27;20028;-77
2024/01/13 01:04:30;;;;;;;64.40;24.40;;;;;;;;;;5143193;27;20039;-77
2024/01/13 01:06:56;;;;;;;56.45;22.58;;;;;;;;;;5126574;27;20057;-77
2024/01/13 01:09:22;;;;;;;57.58;22.98;;;;;;;;;;5138363;27;20106;-77
2024/01/13 01:11:49;;;;;;;54.58;22.40;;;;;;;;;;5138769;27;20046;-78
2024/01/13 01:14:15;;;;;;;54.33;21.20;;;;;;;;;;5144248;27;20030;-78
2024/01/13 01:16:41;;;;;;;50.97;20.73;;;;;;;;;;5139919;27;20038;-76
2024/01/13 01:19:09;;;;;;;45.45;18.88;;;;;;;;;;5140622;27;20053;-77
2024/01/13 01:21:35;;;;;;;43.10;18.10;;;;;;;;;;5134286;27;20027;-77
2024/01/13 01:24:01;;;;;;;54.88;20.63;;;;;;;;;;5139557;27;20031;-77
2024/01/13 01:26:30;;;;;;;46.78;18.15;;;;;;;;;;5142967;27;20031;-77
2024/01/13 01:28:56;;;;;;;43.03;17.20;;;;;;;;;;5136812;27;20050;-77
2024/01/13 01:31:26;;;;;;;38.70;16.92;;;;;;;;;;5135404;27;20043;-77
2024/01/13 01:33:52;;;;;;;46.25;17.55;;;;;;;;;;5138904;27;20042;-77
2024/01/13 01:36:18;;;;;;;47.28;18.05;;;;;;;;;;5137531;27;20028;-77
2024/01/13 01:38:44;;;;;;;45.58;18.95;;;;;;;;;;5140571;27;20075;-76
2024/01/13 01:41:11;;;;;;;45.40;17.35;;;;;;;;;;5146111;27;20022;-78
2024/01/13 01:43:38;;;;;;;43.90;18.35;;;;;;;;;;5147203;27;20299;-77
2024/01/13 01:46:04;;;;;;;45.58;17.20;;;;;;;;;;5151411;27;20047;-77
2024/01/13 01:48:34;;;;;;;50.10;17.60;;;;;;;;;;5142758;27;20070;-78
2024/01/13 01:51:03;;;;;;;46.95;19.48;;;;;;;;;;5146089;27;20056;-77
2024/01/13 01:53:30;;;;;;;56.55;20.60;;;;;;;;;;5144163;27;20030;-78
2024/01/13 01:55:57;;;;;;;59.85;22.25;;;;;;;;;;5143985;27;20057;-78
2024/01/13 01:58:23;;;;;;;58.00;21.17;;;;;;;;;;5138212;27;20018;-77
2024/01/13 02:00:50;;;;;;;49.33;19.63;;;;;;;;;;5154132;27;20484;-77
2024/01/13 02:03:16;;;;;;;57.40;21.45;;;;;;;;;;5147014;27;20027;-77
2024/01/13 02:05:42;;;;;;;60.78;23.05;;;;;;;;;;5144285;27;20038;-77
2024/01/13 02:08:08;;;;;;;59.83;22.80;;;;;;;;;;5138061;27;20047;-78
2024/01/13 02:10:35;;;;;;;64.70;23.63;;;;;;;;;;5149938;27;20027;-78
2024/01/13 02:13:04;;;;;;;58.20;21.35;;;;;;;;;;5145845;27;20055;-77
2024/01/13 02:15:30;;;;;;;54.72;21.38;;;;;;;;;;5144359;27;20036;-77
2024/01/13 02:17:56;;;;;;;41.67;18.88;;;;;;;;;;5143076;27;20038;-78
2024/01/13 02:20:22;;;;;;;58.63;23.35;;;;;;;;;;5143753;27;20026;-77
2024/01/13 02:22:48;;;;;;;54.10;22.13;;;;;;;;;;5139418;27;20051;-77
2024/01/13 02:25:16;;;;;;;52.70;21.48;;;;;;;;;;5140544;27;20075;-76
2024/01/13 02:27:45;;;;;;;56.67;22.77;;;;;;;;;;5142194;27;20023;-76
2024/01/13 02:30:11;;;;;;;54.08;20.52;;;;;;;;;;5151823;27;20056;-78
2024/01/13 02:32:37;;;;;;;56.80;21.60;;;;;;;;;;5146067;27;20037;-77
2024/01/13 02:35:04;;;;;;;63.30;22.67;;;;;;;;;;5143547;27;20031;-77
2024/01/13 02:37:30;;;;;;;60.95;23.05;;;;;;;;;;5149094;27;20049;-77
2024/01/13 02:39:56;;;;;;;60.28;23.35;;;;;;;;;;5146125;27;20023;-77
2024/01/13 02:42:25;;;;;;;53.47;21.40;;;;;;;;;;5141806;27;20023;-77
2024/01/13 02:44:51;;;;;;;69.28;25.35;;;;;;;;;;5138128;27;20028;-77
2024/01/13 02:47:17;;;;;;;72.68;24.92;;;;;;;;;;5139897;27;20371;-77
2024/01/13 02:49:43;;;;;;;61.95;23.27;;;;;;;;;;5147005;27;20035;-78
2024/01/13 02:52:09;;;;;;;57.80;21.85;;;;;;;;;;5140679;27;20031;-78
2024/01/13 02:54:36;;;;;;;54.30;20.70;;;;;;;;;;5141288;27;20047;-77
2024/01/13 02:57:02;;;;;;;46.40;18.15;;;;;;;;;;5146781;27;20031;-77
2024/01/13 02:59:28;;;;;;;50.60;19.27;;;;;;;;;;5139567;27;20085;-77
2024/01/13 03:01:54;;;;;;;43.53;16.92;;;;;;;;;;5143604;27;20042;-78
2024/01/13 03:04:20;;;;;;;44.55;17.50;;;;;;;;;;5143263;27;20106;-78
2024/01/13 03:06:47;;;;;;;45.55;17.77;;;;;;;;;;5142195;27;20012;-77
2024/01/13 03:09:13;;;;;;;43.55;17.33;;;;;;;;;;5137024;27;20030;-77
2024/01/13 03:11:39;;;;;;;40.15;17.45;;;;;;;;;;5144921;27;20035;-77
2024/01/13 03:14:05;;;;;;;43.15;17.58;;;;;;;;;;5143139;27;20027;-77
2024/01/13 03:16:31;;;;;;;47.28;18.58;;;;;;;;;;5143749;27;20023;-77
2024/01/13 03:18:57;;;;;;;46.38;17.60;;;;;;;;;;5141719;27;20019;-77
2024/01/13 03:21:24;;;;;;;44.50;19.15;;;;;;;;;;5128298;27;20049;-77
2024/01/13 03:23:50;;;;;;;46.17;20.90;;;;;;;;;;5136822;27;20041;-77
2024/01/13 03:26:16;;;;;;;53.42;20.20;;;;;;;;;;5139833;27;20046;-78
2024/01/13 03:28:42;;;;;;;51.90;21.05;;;;;;;;;;5150134;27;20036;-78
2024/01/13 03:31:09;;;;;;;50.10;20.05;;;;;;;;;;5146093;27;20072;-78
2024/01/13 03:33:35;;;;;;;46.05;18.80;;;;;;;;;;5138802;27;20063;-77
2024/01/13 03:36:01;;;;;;;56.15;22.75;;;;;;;;;;5136300;27;20053;-78
2024/01/13 03:38:27;;;;;;;55.65;22.85;;;;;;;;;;5127608;27;20043;-77
2024/01/13 03:40:54;;;;;;;57.72;22.95;;;;;;;;;;5131560;27;20027;-77
2024/01/13 03:43:23;;;;;;;48.60;20.33;;;;;;;;;;5136423;27;20023;-78
2024/01/13 03:45:49;;;;;;;50.60;20.15;;;;;;;;;;5144181;27;20051;-77
2024/01/13 03:48:15;;;;;;;50.40;19.65;;;;;;;;;;5146940;27;20019;-78
2024/01/13 03:50:42;;;;;;;49.28;19.67;;;;;;;;;;5144117;27;20054;-78
2024/01/13 03:53:08;;;;;;;47.50;19.67;;;;;;;;;;5136242;27;20076;-77
2024/01/13 03:55:34;;;;;;;51.13;19.65;;;;;;;;;;5138049;27;20028;-78
2024/01/13 03:58:00;;;;;;;45.75;19.48;;;;;;;;;;5135736;27;20091;-77
2024/01/13 04:00:26;;;;;;;41.35;18.40;;;;;;;;;;5136426;27;20038;-77
2024/01/13 04:02:52;;;;;;;45.30;18.08;;;;;;;;;;5136297;27;20027;-77
2024/01/13 04:05:19;;;;;;;46.08;18.50;;;;;;;;;;5142821;27;20034;-78
2024/01/13 04:07:45;;;;;;;43.88;17.40;;;;;;;;;;5135753;27;20032;-77
2024/01/13 04:10:11;;;;;;;39.50;16.45;;;;;;;;;;5138658;27;20042;-77
2024/01/13 04:12:37;;;;;;;36.08;17.15;;;;;;;;;;5131696;27;20038;-77
2024/01/13 04:15:03;;;;;;;40.45;16.88;;;;;;;;;;5130611;27;20854;-77
2024/01/13 04:17:29;;;;;;;44.35;18.23;;;;;;;;;;5136889;27;20024;-77
2024/01/13 04:19:56;;;;;;;47.22;18.40;;;;;;;;;;5136997;27;20027;-77
2024/01/13 04:22:24;;;;;;;44.22;17.85;;;;;;;;;;5140640;27;20034;-77
2024/01/13 04:24:50;;;;;;;41.83;19.02;;;;;;;;;;5130202;27;20523;-77
2024/01/13 04:27:17;;;;;;;49.88;19.92;;;;;;;;;;5133154;27;20023;-77
2024/01/13 04:29:43;;;;;;;60.35;23.88;;;;;;;;;;5138217;27;20023;-78
2024/01/13 04:32:09;;;;;;;58.33;24.45;;;;;;;;;;5148273;27;20031;-78
2024/01/13 04:34:36;;;;;;;55.88;23.50;;;;;;;;;;5140643;27;20081;-77
2024/01/13 04:37:02;;;;;;;53.17;22.52;;;;;;;;;;5140952;27;20034;-79
2024/01/13 04:39:28;;;;;;;53.15;22.10;;;;;;;;;;5141612;27;20038;-79
2024/01/13 04:41:54;;;;;;;46.85;20.13;;;;;;;;;;5144029;27;20022;-80
2024/01/13 04:44:20;;;;;;;43.28;17.20;;;;;;;;;;5137157;27;20046;-79
2024/01/13 04:46:47;;;;;;;52.55;21.60;;;;;;;;;;5138056;27;20417;-78
2024/01/13 04:49:16;;;;;;;49.25;20.23;;;;;;;;;;5137286;27;20372;-78
2024/01/13 04:51:42;;;;;;;50.30;21.35;;;;;;;;;;5144869;27;20065;-79
2024/01/13 04:54:08;;;;;;;55.00;22.17;;;;;;;;;;5143871;27;20122;-78
2024/01/13 04:56:35;;;;;;;42.80;19.05;;;;;;;;;;5149424;27;20015;-78
2024/01/13 04:59:01;;;;;;;40.03;17.85;;;;;;;;;;5141338;27;20024;-79
2024/01/13 05:01:27;;;;;;;49.95;20.55;;;;;;;;;;5158601;27;20027;-79
2024/01/13 05:03:54;;;;;;;43.33;19.50;;;;;;;;;;5167179;27;20015;-79
2024/01/13 05:06:20;;;;;;;48.80;20.60;;;;;;;;;;5152530;27;20044;-78
2024/01/13 05:08:46;;;;;;;46.55;18.95;;;;;;;;;;5141309;28;20004;-78
2024/01/13 05:11:13;;;;;;;46.78;19.80;;;;;;;;;;5158907;27;20023;-77
2024/01/13 05:13:39;;;;;;;43.17;18.05;;;;;;;;;;5167768;27;20035;-78
2024/01/13 05:16:06;;;;;;;43.03;17.95;;;;;;;;;;5170772;27;20083;-78
2024/01/13 05:18:32;;;;;;;33.13;15.05;;;;;;;;;;5144857;27;20012;-77
2024/01/13 05:20:59;;;;;;;37.30;17.40;;;;;;;;;;5173049;27;20036;-79
2024/01/13 05:23:25;;;;;;;37.38;16.55;;;;;;;;;;5153938;27;20023;-77
2024/01/13 05:25:51;;;;;;;36.78;15.98;;;;;;;;;;5131738;27;20061;-77
2024/01/13 05:28:17;;;;;;;36.20;15.45;;;;;;;;;;5123799;27;20042;-76
2024/01/13 05:30:43;;;;;;;48.90;20.77;;;;;;;;;;5144133;27;20492;-77
2024/01/13 05:33:09;;;;;;;46.63;20.38;;;;;;;;;;5146932;27;20042;-78
2024/01/13 05:35:36;;;;;;;44.95;19.42;;;;;;;;;;5148301;27;20026;-77
2024/01/13 05:38:02;;;;;;;46.53;19.63;;;;;;;;;;5149766;27;20065;-77
2024/01/13 05:40:28;;;;;;;44.67;17.98;;;;;;;;;;5138440;27;20110;-76
2024/01/13 05:42:54;;;;;;;46.90;20.92;;;;;;;;;;5146802;27;20104;-77
2024/01/13 05:45:20;;;;;;;52.13;23.27;;;;;;;;;;5141239;27;20027;-76
2024/01/13 05:47:46;;;;;;;58.72;25.35;;;;;;;;;;5130911;27;20030;-76
2024/01/13 05:50:12;;;;;;;64.53;26.75;;;;;;;;;;5150518;27;20031;-77
2024/01/13 05:52:38;;;;;;;56.58;25.48;;;;;;;;;;5144282;27;20049;-76
2024/01/13 05:55:05;;;;;;;60.45;23.90;;;;;;;;;;5135714;27;20027;-77
2024/01/13 05:57:31;;;;;;;79.13;29.42;;;;;;;;;;5143412;27;20046;-76
2024/01/13 05:59:57;;;;;;;78.45;28.40;;;;;;;;;;5156237;27;20048;-78
2024/01/13 06:02:23;;;;;;;65.25;26.17;;;;;;;;;;5171597;27;20019;-78
2024/01/13 06:04:49;;;;;;;68.18;24.10;;;;;;;;;;5172814;27;20050;-78
2024/01/13 06:07:16;;;;;;;56.45;22.15;;;;;;;;;;5170446;27;20018;-78
2024/01/13 06:09:42;;;;;;;47.63;19.52;;;;;;;;;;5155293;27;20073;-78
2024/01/13 06:12:08;;;;;;;50.80;22.00;;;;;;;;;;5155160;27;20079;-79
2024/01/13 06:14:34;;;;;;;61.65;22.98;;;;;;;;;;5159384;27;20047;-79
2024/01/13 06:17:00;;;;;;;74.05;24.60;;;;;;;;;;5159524;27;20126;-79
2024/01/13 06:19:26;;;;;;;80.82;27.40;;;;;;;;;;5178754;27;20039;-78
2024/01/13 06:21:52;;;;;;;80.68;28.15;;;;;;;;;;5158020;27;20020;-77
2024/01/13 06:24:19;;;;;;;76.05;29.45;;;;;;;;;;5151148;27;20076;-78
2024/01/13 06:26:45;;;;;;;67.25;26.83;;;;;;;;;;5151307;27;20038;-77
2024/01/13 06:29:11;;;;;;;60.97;23.20;;;;;;;;;;5144010;27;20067;-78
2024/01/13 06:31:37;;;;;;;50.75;22.48;;;;;;;;;;5147200;27;20034;-78
2024/01/13 06:34:03;;;;;;;48.33;20.42;;;;;;;;;;5144563;27;20075;-77
2024/01/13 06:36:30;;;;;;;50.58;20.38;;;;;;;;;;5156711;27;20186;-77
2024/01/13 06:38:56;;;;;;;50.30;20.60;;;;;;;;;;5135977;28;20016;-77
2024/01/13 06:41:22;;;;;;;54.42;20.98;;;;;;;;;;5132044;28;20054;-77
2024/01/13 06:43:48;;;;;;;43.90;17.77;;;;;;;;;;5137510;28;20039;-77
2024/01/13 06:46:14;;;;;;;49.67;19.80;;;;;;;;;;5152253;27;20029;-76
2024/01/13 06:48:41;;;;;;;51.33;19.63;;;;;;;;;;5179477;27;20033;-76
2024/01/13 06:51:07;;;;;;;59.97;21.33;;;;;;;;;;5159639;27;20023;-76
2024/01/13 06:53:33;;;;;;;70.97;27.17;;;;;;;;;;5156882;27;20035;-77
2024/01/13 06:55:59;;;;;;;68.75;26.63;;;;;;;;;;5171018;27;20011;-75
2024/01/13 06:58:25;;;;;;;61.92;24.40;;;;;;;;;;5178610;27;20041;-77
2024/01/13 07:00:51;;;;;;;88.32;30.05;;;;;;;;;;5174567;27;20062;-77
2024/01/13 07:03:17;;;;;;;75.88;25.92;;;;;;;;;;5159780;27;20081;-77
2024/01/13 07:05:43;;;;;;;68.55;25.88;;;;;;;;;;5160343;27;20011;-76
2024/01/13 07:08:09;;;;;;;62.40;24.95;;;;;;;;;;5159741;27;20030;-76
2024/01/13 07:10:35;;;;;;;59.17;23.95;;;;;;;;;;5158421;27;20056;-76
2024/01/13 07:13:01;;;;;;;57.47;23.83;;;;;;;;;;5156644;27;20023;-78
2024/01/13 07:15:28;;;;;;;61.40;22.75;;;;;;;;;;5156503;27;20027;-76
2024/01/13 07:17:54;;;;;;;55.90;22.17;;;;;;;;;;5168947;27;20035;-75
2024/01/13 07:20:20;;;;;;;56.67;22.50;;;;;;;;;;5160029;27;20038;-79
2024/01/13 07:22:46;;;;;;;79.00;28.05;;;;;;;;;;5166778;27;20026;-78
2024/01/13 07:25:12;;;;;;;64.88;25.77;;;;;;;;;;5163126;27;20027;-77
2024/01/13 07:27:38;;;;;;;64.82;24.63;;;;;;;;;;5163893;27;20023;-78
2024/01/13 07:30:05;;;;;;;55.67;20.70;;;;;;;;;;5167304;27;20038;-77
2024/01/13 07:32:31;;;;;;;51.97;20.40;;;;;;;;;;5158660;27;20062;-76
2024/01/13 07:34:57;;;;;;;48.97;18.25;;;;;;;;;;5153060;27;20027;-77
2024/01/13 07:37:23;;;;;;;55.20;21.30;;;;;;;;;;5134839;27;20027;-78
2024/01/13 07:39:50;;;;;;;51.85;19.77;;;;;;;;;;5120367;28;20042;-76
2024/01/13 07:42:16;;;;;;;49.13;19.35;;;;;;;;;;5122601;27;20148;-76
2024/01/13 07:44:42;;;;;;;60.80;22.95;;;;;;;;;;5118245;27;20024;-76
2024/01/13 07:47:08;;;;;;;62.80;24.40;;;;;;;;;;5119990;27;20023;-76
2024/01/13 07:49:35;;;;;;;50.53;19.67;;;;;;;;;;5126587;27;20110;-75
2024/01/13 07:52:01;;;;;;;44.95;19.33;;;;;;;;;;5137872;27;20031;-75
2024/01/13 07:54:28;;;;;;;48.20;19.95;;;;;;;;;;5137844;28;20028;-75
2024/01/13 07:56:54;;;;;;;41.28;17.52;;;;;;;;;;5138276;28;20016;-75
2024/01/13 07:59:21;;;;;;;50.33;18.13;;;;;;;;;;5152822;27;20015;-75
2024/01/13 08:01:47;;;;;;;42.80;15.93;;;;;;;;;;5169742;27;20007;-75
2024/01/13 08:04:15;;;;;;;46.13;17.40;;;;;;;;;;5159277;27;20037;-75
2024/01/13 08:06:41;;;;;;;47.83;19.75;;;;;;;;;;5136305;27;20080;-76
2024/01/13 08:09:07;;;;;;;51.80;21.08;;;;;;;;;;5118691;27;20047;-77
2024/01/13 08:11:34;;;;;;;60.15;22.98;;;;;;;;;;5135896;27;20041;-76
2024/01/13 08:14:03;;;;;;;55.65;21.08;;;;;;;;;;5124150;27;20030;-76
2024/01/13 08:16:29;;;;;;;48.95;20.08;;;;;;;;;;5123283;27;20015;-76
2024/01/13 08:18:55;;;;;;;48.15;18.65;;;;;;;;;;5128291;27;20068;-76
2024/01/13 08:21:21;;;;;;;72.05;26.05;;;;;;;;;;5122385;27;20031;-76
2024/01/13 08:23:48;;;;;;;61.53;24.08;;;;;;;;;;5115761;27;20458;-76
2024/01/13 08:26:14;;;;;;;63.88;23.75;;;;;;;;;;5121322;28;20023;-77
2024/01/13 08:28:40;;;;;;;49.60;21.23;;;;;;;;;;5114477;27;20110;-74
2024/01/13 08:31:09;;;;;;;54.28;20.75;;;;;;;;;;5126720;27;20128;-75
2024/01/13 08:33:35;;;;;;;50.67;19.95;;;;;;;;;;5154453;27;20079;-76
2024/01/13 08:36:01;;;;;;;38.83;17.25;;;;;;;;;;5113586;28;20048;-76
2024/01/13 08:38:27;;;;;;;42.75;18.02;;;;;;;;;;5118396;28;20032;-74
2024/01/13 08:40:53;;;;;;;40.00;16.48;;;;;;;;;;5135897;27;20110;-75
2024/01/13 08:43:19;;;;;;;33.75;14.20;;;;;;;;;;5145501;28;20004;-75
2024/01/13 08:45:45;;;;;;;36.08;14.93;;;;;;;;;;5137206;28;20013;-75
2024/01/13 08:48:11;;;;;;;37.55;15.60;;;;;;;;;;5133124;28;20030;-76
2024/01/13 08:50:38;;;;;;;32.08;14.02;;;;;;;;;;5131024;27;20027;-76
2024/01/13 08:53:05;;;;;;;23.10;11.82;;;;;;;;;;5144769;27;20075;-75
2024/01/13 08:55:31;;;;;;;26.98;11.93;;;;;;;;;;5141971;27;20051;-75
2024/01/13 08:57:57;;;;;;;27.75;11.25;;;;;;;;;;5124288;27;20027;-76
2024/01/13 09:00:25;;;;;;;25.45;11.82;;;;;;;;;;5124412;27;20134;-76
2024/01/13 09:02:51;;;;;;;25.10;10.95;;;;;;;;;;5143038;27;20030;-75
2024/01/13 09:05:17;;;;;;;24.98;11.40;;;;;;;;;;5118812;28;20020;-75
2024/01/13 09:07:44;;;;;;;32.78;14.70;;;;;;;;;;5113511;27;20683;-75
2024/01/13 09:10:10;;;;;;;28.08;13.65;;;;;;;;;;5111886;27;20043;-77
2024/01/13 09:12:37;;;;;;;28.60;13.20;;;;;;;;;;5113025;27;20032;-75
2024/01/13 09:15:06;;;;;;;28.75;13.35;;;;;;;;;;5115948;27;20103;-75
2024/01/13 09:17:32;;;;;;;31.05;13.70;;;;;;;;;;5130603;27;20028;-77
2024/01/13 09:19:58;;;;;;;28.23;14.88;;;;;;;;;;5122147;28;20439;-77
2024/01/13 09:22:24;;;;;;;27.67;13.02;;;;;;;;;;5131516;27;20020;-75
2024/01/13 09:24:50;;;;;;;41.38;19.58;;;;;;;;;;5131430;28;20359;-77
2024/01/13 09:27:17;;;;;;;35.85;16.63;;;;;;;;;;5123858;27;20019;-76
2024/01/13 09:29:45;;;;;;;41.15;18.42;;;;;;;;;;5120537;27;20040;-76
2024/01/13 09:32:11;;;;;;;53.67;20.67;;;;;;;;;;5144493;27;20027;-77
2024/01/13 09:34:37;;;;;;;57.63;22.73;;;;;;;;;;5132000;27;20032;-76
2024/01/13 09:37:03;;;;;;;54.67;22.73;;;;;;;;;;5127359;27;20347;-75
2024/01/13 09:39:29;;;;;;;52.13;22.63;;;;;;;;;;5119443;27;20023;-76
2024/01/13 09:41:58;;;;;;;46.05;19.13;;;;;;;;;;5116734;28;20024;-77
2024/01/13 09:44:25;;;;;;;50.28;20.38;;;;;;;;;;5119090;27;20416;-77
2024/01/13 09:46:52;;;;;;;50.03;20.48;;;;;;;;;;5135127;27;20031;-77
2024/01/13 09:49:19;;;;;;;47.13;18.92;;;;;;;;;;5116321;27;20054;-76
2024/01/13 09:51:46;;;;;;;47.85;18.63;;;;;;;;;;5122893;27;20388;-76
2024/01/13 09:54:15;;;;;;;45.30;18.63;;;;;;;;;;5135733;27;20026;-76
2024/01/13 09:56:45;;;;;;;47.65;19.83;;;;;;;;;;5122306;27;20031;-75
2024/01/13 09:59:12;;;;;;;45.50;19.55;;;;;;;;;;5117322;27;20047;-75
2024/01/13 10:01:38;;;;;;;48.85;20.02;;;;;;;;;;5132512;27;20019;-77
2024/01/13 10:04:05;;;;;;;47.65;20.02;;;;;;;;;;5142566;27;20031;-77
2024/01/13 10:06:35;;;;;;;47.90;20.55;;;;;;;;;;5117388;27;20043;-76
2024/01/13 10:09:01;;;;;;;52.15;20.75;;;;;;;;;;5116206;28;20430;-77
2024/01/13 10:11:28;;;;;;;39.10;17.67;;;;;;;;;;5113320;28;20050;-77
2024/01/13 10:14:01;;;;;;;42.47;18.52;;;;;;;;;;5114208;27;20054;-76
2024/01/13 10:16:31;;;;;;;38.13;16.67;;;;;;;;;;5113910;27;20035;-76
2024/01/13 10:19:02;;;;;;;54.58;22.45;;;;;;;;;;5113944;27;20450;-76
2024/01/13 10:21:28;;;;;;;45.42;20.65;;;;;;;;;;5114459;28;20042;-76
2024/01/13 10:23:55;;;;;;;47.15;20.38;;;;;;;;;;5114119;27;20370;-77
2024/01/13 10:26:23;;;;;;;48.83;20.02;;;;;;;;;;5130559;27;20027;-77
2024/01/13 10:28:50;;;;;;;40.30;17.40;;;;;;;;;;5135313;27;20031;-77
2024/01/13 10:31:18;;;;;;;37.15;15.63;;;;;;;;;;5141187;27;20122;-76
2024/01/13 10:33:48;;;;;;;43.63;17.20;;;;;;;;;;5142597;27;20501;-76
2024/01/13 10:36:14;;;;;;;37.13;16.75;;;;;;;;;;5124624;27;20104;-76
2024/01/13 10:38:42;;;;;;;35.78;16.13;;;;;;;;;;5120854;27;20398;-76
2024/01/13 10:41:12;;;;;;;32.85;14.88;;;;;;;;;;5116808;28;20027;-75
2024/01/13 10:43:39;;;;;;;26.73;12.57;;;;;;;;;;5123026;27;20034;-76
2024/01/13 10:46:08;;;;;;;26.77;12.07;;;;;;;;;;5135880;27;20075;-75
2024/01/13 10:48:43;;;;;;;28.95;13.15;;;;;;;;;;5139371;28;20080;-76
2024/01/13 10:51:14;;;;;;;27.77;12.65;;;;;;;;;;5138727;28;20023;-76
2024/01/13 10:53:42;;;;;;;24.60;11.20;;;;;;;;;;5139121;28;20065;-75
2024/01/13 10:56:09;;;;;;;29.52;12.63;;;;;;;;;;5142929;27;20000;-75
2024/01/13 10:58:35;;;;;;;46.30;21.73;;;;;;;;;;5156571;27;20030;-75
2024/01/13 11:01:02;;;;;;;50.15;23.42;;;;;;;;;;5137977;27;20053;-77
2024/01/13 11:03:28;;;;;;;58.95;24.20;;;;;;;;;;5153578;27;20091;-76
2024/01/13 11:05:54;;;;;;;63.70;25.67;;;;;;;;;;5129649;27;20045;-76
2024/01/13 11:08:21;;;;;;;57.58;25.60;;;;;;;;;;5134901;27;20023;-77
2024/01/13 11:10:48;;;;;;;65.95;25.85;;;;;;;;;;5115548;27;20027;-76
2024/01/13 11:13:20;;;;;;;57.42;24.63;;;;;;;;;;5115853;27;20023;-76
2024/01/13 11:16:04;;;;;;;63.05;26.20;;;;;;;;;;5126707;27;20035;-76
2024/01/13 11:18:50;;;;;;;62.65;25.23;;;;;;;;;;5118631;27;20053;-76
2024/01/13 11:21:17;;;;;;;57.78;23.00;;;;;;;;;;5127082;27;20060;-75
2024/01/13 11:23:47;;;;;;;55.70;23.08;;;;;;;;;;5139631;27;20033;-77
2024/01/13 11:26:27;;;;;;;52.10;21.55;;;;;;;;;;5147834;27;20015;-75
2024/01/13 11:28:54;;;;;;;39.50;18.20;;;;;;;;;;5152338;27;20069;-76
2024/01/13 11:31:30;;;;;;;42.95;18.88;;;;;;;;;;5141575;27;20022;-76
2024/01/13 11:33:57;;;;;;;37.97;16.17;;;;;;;;;;5146564;27;20034;-78
2024/01/13 11:36:23;;;;;;;31.85;14.95;;;;;;;;;;5134382;27;20024;-75
2024/01/13 11:38:51;;;;;;;34.10;16.10;;;;;;;;;;5114919;28;20114;-75
2024/01/13 11:41:17;;;;;;;32.55;14.20;;;;;;;;;;5114788;28;20439;-76
2024/01/13 11:43:45;;;;;;;31.48;14.40;;;;;;;;;;5113363;28;20016;-76
2024/01/13 11:46:11;;;;;;;24.55;12.85;;;;;;;;;;5116198;27;20478;-76
2024/01/13 11:48:41;;;;;;;24.20;12.20;;;;;;;;;;5114380;28;20500;-76
2024/01/13 11:51:08;;;;;;;27.67;13.80;;;;;;;;;;5113763;28;20088;-76
2024/01/13 11:53:35;;;;;;;25.20;13.20;;;;;;;;;;5113045;28;20031;-76
2024/01/13 11:56:01;;;;;;;36.47;16.55;;;;;;;;;;5119931;27;20023;-76
2024/01/13 11:58:28;;;;;;;38.97;17.10;;;;;;;;;;5120811;27;20577;-77
2024/01/13 12:00:54;;;;;;;42.08;20.40;;;;;;;;;;5121306;27;20600;-77
2024/01/13 12:03:20;;;;;;;38.63;17.92;;;;;;;;;;5154497;27;20038;-77
2024/01/13 12:05:46;;;;;;;38.25;17.90;;;;;;;;;;5118235;27;20370;-77
2024/01/13 12:08:13;;;;;;;36.97;18.30;;;;;;;;;;5114389;28;20586;-76
2024/01/13 12:10:42;;;;;;;35.15;18.05;;;;;;;;;;5111175;27;20030;-76
2024/01/13 12:13:21;;;;;;;31.60;16.55;;;;;;;;;;5113224;28;20102;-77
2024/01/13 12:15:48;;;;;;;31.55;15.20;;;;;;;;;;5113694;28;20024;-77
2024/01/13 12:18:19;;;;;;;26.88;13.30;;;;;;;;;;5113348;28;20079;-77
2024/01/13 12:20:45;;;;;;;31.70;14.97;;;;;;;;;;5121981;27;20048;-76
2024/01/13 12:23:12;;;;;;;28.70;13.90;;;;;;;;;;5127543;27;20390;-76
2024/01/13 12:25:38;;;;;;;35.13;16.02;;;;;;;;;;5113921;28;20030;-76
2024/01/13 12:28:04;;;;;;;33.88;16.67;;;;;;;;;;5110253;22;20497;-77
2024/01/13 12:30:30;;;;;;;37.22;15.98;;;;;;;;;;5071561;28;20050;-76
2024/01/13 12:32:56;;;;;;;39.88;18.10;;;;;;;;;;5070701;28;20055;-76
2024/01/13 12:35:26;;;;;;;32.38;16.33;;;;;;;;;;5071167;28;20090;-77
2024/01/13 12:37:52;;;;;;;38.90;18.55;;;;;;;;;;5074635;28;20061;-77
2024/01/13 12:40:18;;;;;;;34.05;16.15;;;;;;;;;;5085984;28;20028;-76
2024/01/13 12:42:46;;;;;;;34.83;16.38;;;;;;;;;;5091288;28;20024;-77
2024/01/13 12:45:12;;;;;;;30.10;15.65;;;;;;;;;;5077472;28;20083;-76
2024/01/13 12:47:38;;;;;;;33.00;15.30;;;;;;;;;;5079614;28;20036;-76
2024/01/13 12:50:10;;;;;;;33.45;16.55;;;;;;;;;;5094672;28;20019;-77
2024/01/13 12:52:41;;;;;;;33.22;15.27;;;;;;;;;;5098927;28;20051;-76
2024/01/13 12:55:07;;;;;;;29.40;13.40;;;;;;;;;;5086246;28;20021;-77
2024/01/13 12:57:34;;;;;;;26.10;12.35;;;;;;;;;;5091671;28;20099;-76
2024/01/13 13:00:02;;;;;;;27.95;13.15;;;;;;;;;;5082474;28;20039;-76
2024/01/13 13:02:28;;;;;;;24.33;11.10;;;;;;;;;;5092914;28;20024;-77
2024/01/13 13:04:54;;;;;;;25.40;12.32;;;;;;;;;;5092972;28;20016;-77
2024/01/13 13:07:24;;;;;;;23.60;10.40;;;;;;;;;;5094732;28;20474;-77
2024/01/13 13:09:51;;;;;;;21.38;10.57;;;;;;;;;;5093637;28;20166;-76
2024/01/13 13:12:17;;;;;;;19.85;9.93;;;;;;;;;;5096590;28;20024;-77
2024/01/13 13:14:44;;;;;;;17.48;9.70;;;;;;;;;;5097592;28;20031;-77
2024/01/13 13:17:11;;;;;;;20.88;9.13;;;;;;;;;;5096315;28;20031;-77
2024/01/13 13:19:37;;;;;;;21.83;8.98;;;;;;;;;;5095559;28;20145;-77
2024/01/13 13:22:03;;;;;;;27.13;12.57;;;;;;;;;;5096325;28;20475;-76
2024/01/13 13:24:31;;;;;;;26.88;11.95;;;;;;;;;;5096283;28;20048;-76
2024/01/13 13:26:57;;;;;;;20.92;10.30;;;;;;;;;;5096862;28;20020;-77
2024/01/13 13:29:24;;;;;;;25.85;11.80;;;;;;;;;;5097053;28;20069;-76
2024/01/13 13:31:51;;;;;;;27.52;12.55;;;;;;;;;;5114685;28;20028;-76
2024/01/13 13:34:17;;;;;;;28.35;11.85;;;;;;;;;;5119922;28;20046;-76
2024/01/13 13:36:43;;;;;;;21.52;9.98;;;;;;;;;;5110544;28;20012;-76
2024/01/13 13:39:09;;;;;;;23.48;10.60;;;;;;;;;;5107403;28;20011;-76
2024/01/13 13:41:35;;;;;;;24.45;10.20;;;;;;;;;;5116923;28;20044;-77
2024/01/13 13:44:03;;;;;;;20.10;9.50;;;;;;;;;;5119680;28;20014;-78
2024/01/13 13:46:29;;;;;;;20.33;8.90;;;;;;;;;;5119969;28;20043;-76
2024/01/13 13:48:55;;;;;;;23.10;10.80;;;;;;;;;;5118980;28;20041;-77
2024/01/13 13:51:21;;;;;;;22.42;10.15;;;;;;;;;;5119097;28;20016;-76
2024/01/13 13:53:48;;;;;;;27.00;9.60;;;;;;;;;;5112356;28;20497;-77
2024/01/13 13:56:14;;;;;;;23.60;10.05;;;;;;;;;;5090318;28;20423;-77
2024/01/13 13:58:40;;;;;;;28.67;11.40;;;;;;;;;;5088483;28;20025;-77
2024/01/13 14:01:06;;;;;;;26.60;11.10;;;;;;;;;;5081647;28;20040;-77
2024/01/13 14:03:32;;;;;;;27.38;11.60;;;;;;;;;;5083526;28;20025;-76
2024/01/13 14:05:59;;;;;;;25.17;10.00;;;;;;;;;;5088458;28;20043;-76
2024/01/13 14:08:26;;;;;;;19.75;9.27;;;;;;;;;;5097426;28;20020;-77
2024/01/13 14:10:52;;;;;;;31.88;12.40;;;;;;;;;;5077513;28;20040;-76
2024/01/13 14:13:19;;;;;;;30.13;12.23;;;;;;;;;;5095282;28;20035;-77